Time;durP1;ratioP1;P1;durP2;ratioP2;P2;SDS_P1;SDS_P2;PMS_P1;PMS_P2;Temp;Humidity;BMP_temperature;BMP_pressure;BME280_temperature;BME280_humidity;BME280_pressure;Samples;Min_cycle;Max_cycle;Signal;HPM_P1;HPM_P2
2024/01/27 00:00:21;;;;;;;3.00;1.87;;;;;;;4.62;98.41;152550.06;5012910;28;20479;-90
2024/01/27 00:02:49;;;;;;;3.10;1.73;;;;;;;4.62;98.37;152548.75;5013082;28;20448;-90
2024/01/27 00:05:16;;;;;;;2.60;2.00;;;;;;;4.50;98.06;152519.09;5029164;28;20459;-91
2024/01/27 00:07:43;;;;;;;2.60;1.83;;;;;;;4.41;98.18;152494.66;5048231;28;20502;-90
2024/01/27 00:10:10;;;;;;;3.53;2.00;;;;;;;4.30;98.74;152468.91;5029326;28;20471;-90
2024/01/27 00:12:36;;;;;;;3.00;1.90;;;;;;;4.27;99.40;152459.88;5028782;28;20550;-90
2024/01/27 00:15:03;;;;;;;3.00;2.00;;;;;;;4.25;100.00;152454.72;5028703;28;20472;-90
2024/01/27 00:17:29;;;;;;;2.73;1.93;;;;;;;4.18;100.00;152437.97;5017012;28;20457;-91
2024/01/27 00:19:57;;;;;;;3.87;2.07;;;;;;;4.09;99.82;152413.50;4992815;28;20483;-91
2024/01/27 00:22:24;;;;;;;3.13;2.00;;;;;;;4.01;99.62;152392.91;5009746;28;20437;-91
2024/01/27 00:24:51;;;;;;;3.37;1.80;;;;;;;3.97;100.00;152382.63;5007958;28;20451;-91
2024/01/27 00:27:17;;;;;;;2.80;2.10;;;;;;;3.90;100.00;152364.56;5022851;28;20815;-92
2024/01/27 00:29:44;;;;;;;3.70;1.80;;;;;;;3.79;100.00;152336.22;5004096;28;20991;-90
2024/01/27 00:32:10;;;;;;;2.97;2.13;;;;;;;3.67;100.00;152307.94;5012781;28;20494;-91
2024/01/27 00:34:37;;;;;;;3.43;2.30;;;;;;;3.65;100.00;152302.75;5013267;28;20495;-92
2024/01/27 00:37:05;;;;;;;3.80;2.00;;;;;;;3.64;100.00;152300.22;5013222;28;20447;-92
2024/01/27 00:39:32;;;;;;;4.00;2.63;;;;;;;3.57;100.00;152282.16;5013844;28;20960;-92
2024/01/27 00:41:59;;;;;;;3.60;2.13;;;;;;;3.55;100.00;152277.03;5013488;28;20494;-92
2024/01/27 00:44:25;;;;;;;4.27;2.20;;;;;;;3.54;100.00;152274.47;5013490;28;20441;-92
2024/01/27 00:46:52;;;;;;;2.73;2.07;;;;;;;3.50;100.00;152264.16;5014242;28;20452;-92
2024/01/27 00:49:19;;;;;;;3.40;2.57;;;;;;;3.43;100.00;152246.16;5013612;28;20479;-92
2024/01/27 00:51:45;;;;;;;6.03;2.60;;;;;;;3.34;100.00;152222.97;5013358;28;20459;-92
2024/01/27 00:54:13;;;;;;;3.00;2.00;;;;;;;3.34;100.00;152222.97;5013716;28;20443;-93
2024/01/27 00:56:40;;;;;;;3.63;2.50;;;;;;;3.34;100.00;152221.66;5013520;28;20447;-92
2024/01/27 00:59:06;;;;;;;2.63;2.13;;;;;;;3.38;100.00;152233.28;5013406;28;20436;-93
2024/01/27 01:01:33;;;;;;;2.53;1.90;;;;;;;3.34;100.00;152222.97;5030031;28;20450;-93
2024/01/27 01:03:59;;;;;;;2.57;2.03;;;;;;;3.37;100.00;152230.69;5013794;28;20519;-93
2024/01/27 01:06:26;;;;;;;5.40;2.30;;;;;;;3.36;100.00;152226.84;5013604;28;20443;-92
2024/01/27 01:08:52;;;;;;;4.40;2.03;;;;;;;3.37;100.00;152230.69;5013482;28;20475;-93
2024/01/27 01:11:20;;;;;;;2.53;1.87;;;;;;;3.35;100.00;152225.56;5013252;28;20490;-93
2024/01/27 01:13:47;;;;;;;2.90;2.13;;;;;;;3.27;100.00;152203.66;5013540;28;20532;-92
2024/01/27 01:16:13;;;;;;;2.73;2.03;;;;;;;3.20;100.00;152186.97;5013819;28;20444;-93
2024/01/27 01:18:40;;;;;;;4.10;2.40;;;;;;;3.18;100.00;152180.53;5013475;28;20448;-92
2024/01/27 01:21:07;;;;;;;3.27;2.13;;;;;;;3.21;100.00;152188.22;5013745;28;20494;-93
2024/01/27 01:23:34;;;;;;;2.50;1.90;;;;;;;3.22;100.00;152190.81;5030068;28;20432;-93
2024/01/27 01:26:00;;;;;;;2.90;2.00;;;;;;;3.20;100.00;152186.97;5013849;28;20523;-93
2024/01/27 01:28:29;;;;;;;2.40;2.07;;;;;;;3.18;100.00;152180.53;5014029;28;20834;-93
2024/01/27 01:30:55;;;;;;;3.67;2.17;;;;;;;3.17;100.00;152177.94;5033480;28;20439;-94
2024/01/27 01:33:22;;;;;;;3.23;2.10;;;;;;;3.14;100.00;152171.50;5017226;28;20818;-94
2024/01/27 01:35:49;;;;;;;3.37;2.13;;;;;;;3.09;100.00;152158.66;5033889;28;20439;-94
2024/01/27 01:38:15;;;;;;;2.50;1.83;;;;;;;3.10;100.00;152161.19;5017571;28;20427;-94
2024/01/27 01:40:42;;;;;;;2.90;2.00;;;;;;;3.06;100.00;152150.91;5017044;28;20443;-94
2024/01/27 01:43:11;;;;;;;2.80;1.60;;;;;;;3.02;100.00;152140.59;5016868;28;20475;-94
2024/01/27 01:45:39;;;;;;;7.20;2.70;;;;;;;3.04;100.00;152145.78;5016618;28;20463;-94
2024/01/27 01:48:06;;;;;;;2.77;2.00;;;;;;;2.99;100.00;152132.91;5033277;28;20427;-94
2024/01/27 01:50:33;;;;;;;4.27;2.40;;;;;;;2.97;100.00;152127.75;5016848;28;20460;-94
2024/01/27 01:53:00;;;;;;;3.43;2.50;;;;;;;2.92;100.00;152114.88;5016820;28;20443;-95
2024/01/27 01:55:27;;;;;;;4.07;2.00;;;;;;;2.85;100.00;152096.88;5017063;28;20531;-95
2024/01/27 01:57:53;;;;;;;3.77;2.30;;;;;;;2.85;100.00;152098.19;5030232;28;20437;-94
2024/01/27 02:00:20;;;;;;;2.83;2.10;;;;;;;2.81;100.00;152087.84;5007692;28;20563;-94
2024/01/27 02:02:49;;;;;;;3.10;2.57;;;;;;;2.77;100.00;152076.28;5049385;28;20441;-93
2024/01/27 02:05:15;;;;;;;3.07;2.30;;;;;;;2.75;100.00;152071.16;5049635;28;20770;-93
2024/01/27 02:07:42;;;;;;;3.30;2.20;;;;;;;2.76;100.00;152073.72;5015977;28;20432;-93
2024/01/27 02:10:13;;;;;;;2.90;2.20;;;;;;;2.79;100.00;152082.72;5016151;28;21107;-93
2024/01/27 02:12:40;;;;;;;4.43;2.43;;;;;;;2.83;100.00;152091.75;5015975;28;20829;-93
2024/01/27 02:15:10;;;;;;;3.90;2.10;;;;;;;2.81;100.00;152087.84;5015887;28;20994;-95
2024/01/27 02:17:36;;;;;;;3.03;2.00;;;;;;;2.84;100.00;152094.28;5025629;28;20543;-95
2024/01/27 02:20:06;;;;;;;4.10;2.30;;;;;;;2.83;100.00;152091.75;5050047;28;20530;-94
2024/01/27 02:22:33;;;;;;;2.63;2.13;;;;;;;2.85;100.00;152096.88;5017092;28;20269;-94
2024/01/27 02:25:01;;;;;;;3.40;2.40;;;;;;;2.78;100.00;152078.88;5016040;28;20446;-94
2024/01/27 02:27:28;;;;;;;3.30;2.10;;;;;;;2.75;100.00;152072.47;5031468;28;20467;-95
2024/01/27 02:29:54;;;;;;;3.77;2.37;;;;;;;2.72;100.00;152064.75;5064986;28;20564;-94
2024/01/27 02:32:21;;;;;;;2.73;2.17;;;;;;;2.74;100.00;152068.56;5050299;28;20438;-94
2024/01/27 02:34:48;;;;;;;3.03;2.43;;;;;;;2.73;100.00;152065.97;5060958;28;20772;-95
2024/01/27 02:37:15;;;;;;;4.30;2.63;;;;;;;2.74;100.00;152068.56;5017545;28;20448;-94
2024/01/27 02:39:41;;;;;;;2.87;2.30;;;;;;;2.77;100.00;152076.28;5011452;28;20441;-95
2024/01/27 02:42:09;;;;;;;3.80;2.57;;;;;;;2.75;100.00;152071.16;5019591;28;20490;-94
2024/01/27 02:44:36;;;;;;;4.30;2.60;;;;;;;2.76;100.00;152073.72;5014601;28;20440;-94
2024/01/27 02:47:03;;;;;;;4.33;2.83;;;;;;;2.75;100.00;152072.47;5030666;28;20476;-94
2024/01/27 02:49:30;;;;;;;3.50;2.10;;;;;;;2.76;100.00;152073.72;5015986;28;20555;-94
2024/01/27 02:51:56;;;;;;;6.00;2.70;;;;;;;2.77;100.00;152076.28;5028374;28;20463;-93
2024/01/27 02:54:23;;;;;;;3.73;2.40;;;;;;;2.75;100.00;152071.16;5046257;28;20444;-94
2024/01/27 02:56:50;;;;;;;4.60;2.70;;;;;;;2.70;100.00;152058.31;5013674;28;20452;-93
2024/01/27 02:59:18;;;;;;;4.37;2.70;;;;;;;2.67;100.00;152050.56;5003322;28;20455;-93
2024/01/27 03:01:44;;;;;;;3.07;2.77;;;;;;;2.67;100.00;152050.56;5009623;28;20461;-93
2024/01/27 03:04:11;;;;;;;4.20;2.70;;;;;;;2.59;100.00;152031.28;5051930;28;20548;-93
2024/01/27 03:06:37;;;;;;;5.10;2.70;;;;;;;2.57;100.00;152024.88;5014909;28;20482;-93
2024/01/27 03:09:04;;;;;;;2.67;2.13;;;;;;;2.54;100.00;152017.16;5014491;28;20475;-93
2024/01/27 03:11:31;;;;;;;4.80;2.43;;;;;;;2.55;100.00;152020.97;5013383;28;20483;-92
2024/01/27 03:13:58;;;;;;;5.33;2.77;;;;;;;2.51;100.00;152009.41;5010940;28;20801;-92
2024/01/27 03:16:26;;;;;;;3.60;3.00;;;;;;;2.45;100.00;151996.56;5034206;28;20530;-92
2024/01/27 03:18:52;;;;;;;2.83;2.40;;;;;;;2.40;100.00;151982.41;5012479;28;20468;-92
2024/01/27 03:21:19;;;;;;;3.50;2.43;;;;;;;2.37;100.00;151976.00;5010306;28;20462;-92
2024/01/27 03:23:45;;;;;;;4.17;2.50;;;;;;;2.30;100.00;151956.72;5011153;28;20435;-93
2024/01/27 03:26:40;;;;;;;4.67;2.40;;;;;;;2.22;100.00;151937.44;5012946;28;20963;-92
2024/01/27 03:29:06;;;;;;;5.77;2.80;;;;;;;2.21;100.00;151934.84;5023738;28;20468;-92
2024/01/27 03:31:35;;;;;;;4.40;2.57;;;;;;;2.18;100.00;151925.81;5016249;28;20460;-93
2024/01/27 03:34:02;;;;;;;5.73;2.80;;;;;;;2.18;100.00;151925.81;5011512;28;20451;-93
2024/01/27 03:36:29;;;;;;;4.30;2.50;;;;;;;2.10;100.00;151906.53;5010749;28;20470;-92
2024/01/27 03:38:57;;;;;;;4.90;2.87;;;;;;;2.06;100.00;151896.28;5010145;28;20963;-92
2024/01/27 03:41:24;;;;;;;4.63;2.20;;;;;;;2.07;100.00;151897.53;5044800;28;20446;-92
2024/01/27 03:43:51;;;;;;;2.90;2.30;;;;;;;2.00;100.00;151880.84;5028138;28;20443;-92
2024/01/27 03:46:17;;;;;;;4.37;2.90;;;;;;;2.00;100.00;151880.84;5008620;28;20456;-92
2024/01/27 03:48:45;;;;;;;4.20;2.70;;;;;;;2.02;100.00;151885.97;5027293;28;20866;-91
2024/01/27 03:51:12;;;;;;;5.77;3.27;;;;;;;2.08;100.00;151901.41;5027730;28;20452;-92
2024/01/27 03:53:38;;;;;;;3.43;2.60;;;;;;;2.13;100.00;151914.25;5027260;28;20450;-91
2024/01/27 03:56:06;;;;;;;3.37;2.70;;;;;;;2.17;100.00;151924.53;5024701;28;20478;-91
2024/01/27 03:58:32;;;;;;;5.43;3.70;;;;;;;2.18;100.00;151925.81;5028356;28;20865;-91
2024/01/27 04:01:00;;;;;;;6.77;2.43;;;;;;;2.21;100.00;151933.53;5027489;28;20484;-91
2024/01/27 04:03:26;;;;;;;5.87;2.80;;;;;;;2.19;100.00;151928.41;5043835;28;20478;-91
2024/01/27 04:05:54;;;;;;;3.20;2.33;;;;;;;2.16;100.00;151920.69;5026324;28;20486;-90
2024/01/27 04:08:21;;;;;;;4.10;3.13;;;;;;;2.14;100.00;151916.84;5027911;28;20912;-90
2024/01/27 04:10:47;;;;;;;4.50;3.27;;;;;;;2.13;100.00;151914.25;5027538;28;20748;-89
2024/01/27 04:13:14;;;;;;;4.23;2.40;;;;;;;2.13;100.00;151914.25;5018825;28;20593;-90
2024/01/27 04:15:40;;;;;;;3.53;2.40;;;;;;;2.14;100.00;151915.56;5025533;28;20555;-90
2024/01/27 04:18:08;;;;;;;5.50;3.20;;;;;;;2.14;100.00;151916.84;5033396;28;20571;-90
2024/01/27 04:20:34;;;;;;;9.30;2.37;;;;;;;2.11;100.00;151909.13;5027496;28;20467;-90
2024/01/27 04:23:03;;;;;;;3.60;2.90;;;;;;;2.12;100.00;151911.69;5022796;28;20856;-89
2024/01/27 04:25:29;;;;;;;3.80;2.67;;;;;;;2.11;100.00;151907.84;5028154;28;20466;-90
2024/01/27 04:27:56;;;;;;;3.50;2.53;;;;;;;2.07;100.00;151897.53;5016035;28;20989;-90
2024/01/27 04:30:22;;;;;;;3.80;2.27;;;;;;;2.05;100.00;151892.41;5017647;28;20495;-89
2024/01/27 04:32:51;;;;;;;6.03;3.30;;;;;;;2.05;100.00;151893.69;5021697;28;20545;-91
2024/01/27 04:35:18;;;;;;;5.30;2.60;;;;;;;1.96;100.00;151870.53;5013138;28;20963;-90
2024/01/27 04:37:45;;;;;;;5.53;2.50;;;;;;;1.96;100.00;151869.28;5036125;28;20456;-90
2024/01/27 04:40:14;;;;;;;4.07;2.70;;;;;;;1.96;100.00;151869.28;5032792;28;20432;-89
2024/01/27 04:42:40;;;;;;;3.70;3.10;;;;;;;1.95;100.00;151868.00;5029674;28;20466;-90
2024/01/27 04:45:07;;;;;;;3.87;2.87;;;;;;;1.92;100.00;151858.97;5029512;28;20467;-88
2024/01/27 04:47:34;;;;;;;2.73;2.33;;;;;;;1.89;100.00;151852.56;5028471;28;20452;-91
2024/01/27 04:50:00;;;;;;;6.17;2.80;;;;;;;1.86;100.00;151844.84;5010346;28;20496;-91
2024/01/27 04:52:27;;;;;;;4.10;2.47;;;;;;;1.83;100.00;151837.13;5027100;28;20673;-90
2024/01/27 04:54:53;;;;;;;7.53;2.90;;;;;;;1.80;100.00;151829.44;5021610;28;20448;-92
2024/01/27 04:57:21;;;;;;;3.80;2.63;;;;;;;1.78;100.00;151825.56;5026386;28;20443;-91
2024/01/27 04:59:48;;;;;;;3.47;2.60;;;;;;;1.75;100.00;151816.56;5022113;28;20457;-91
2024/01/27 05:02:15;;;;;;;3.27;2.77;;;;;;;1.75;100.00;151816.56;5013761;28;20498;-92
2024/01/27 05:04:41;;;;;;;3.60;2.50;;;;;;;1.80;100.00;151829.44;5029920;28;20534;-91
2024/01/27 05:07:10;;;;;;;3.33;2.20;;;;;;;1.83;100.00;151837.13;5046896;28;20479;-92
2024/01/27 05:09:37;;;;;;;3.73;2.63;;;;;;;1.88;100.00;151849.97;5042614;28;20538;-90
2024/01/27 05:12:04;;;;;;;7.47;2.80;;;;;;;1.87;100.00;151847.41;5032669;28;20876;-91
2024/01/27 05:14:32;;;;;;;4.20;2.43;;;;;;;1.82;100.00;151835.88;5033012;28;20465;-90
2024/01/27 05:16:59;;;;;;;4.90;2.50;;;;;;;1.78;100.00;151825.56;5049405;28;20498;-90
2024/01/27 05:19:25;;;;;;;6.27;2.13;;;;;;;1.77;100.00;151821.72;5018446;28;20487;-90
2024/01/27 05:21:54;;;;;;;5.17;2.93;;;;;;;1.76;100.00;151820.44;5029343;28;20513;-90
2024/01/27 05:24:21;;;;;;;7.03;3.50;;;;;;;1.71;100.00;151806.28;5034204;28;20479;-90
2024/01/27 05:26:56;;;;;;;3.40;2.60;;;;;;;1.73;100.00;151812.72;5033101;28;20458;-91
2024/01/27 05:29:23;;;;;;;4.17;2.33;;;;;;;1.71;100.00;151806.28;5034505;28;20492;-91
2024/01/27 05:31:54;;;;;;;3.10;2.20;;;;;;;1.67;100.00;151795.97;5033414;28;20478;-89
2024/01/27 05:34:22;;;;;;;4.20;2.87;;;;;;;1.63;100.00;151785.72;5032336;28;20450;-92
2024/01/27 05:36:51;;;;;;;4.60;2.70;;;;;;;1.58;100.00;151774.19;5003643;28;20475;-91
2024/01/27 05:39:17;;;;;;;4.50;2.50;;;;;;;1.53;100.00;151760.03;5020927;28;20483;-91
2024/01/27 05:41:44;;;;;;;4.90;2.80;;;;;;;1.43;100.00;151734.34;5046094;28;20954;-90
2024/01/27 05:44:22;;;;;;;4.80;2.70;;;;;;;1.37;100.00;151718.91;5051703;28;20794;-89
2024/01/27 05:46:49;;;;;;;3.27;2.87;;;;;;;1.31;100.00;151704.78;5051064;28;20496;-91
2024/01/27 05:49:17;;;;;;;3.80;2.77;;;;;;;1.29;100.00;151698.38;5054496;28;20446;-91
2024/01/27 05:51:46;;;;;;;3.30;2.70;;;;;;;1.18;100.00;151672.69;5053656;28;20470;-91
2024/01/27 05:54:16;;;;;;;5.80;2.50;;;;;;;1.14;100.00;151662.38;5052727;28;20440;-90
2024/01/27 05:56:43;;;;;;;5.80;3.13;;;;;;;1.09;100.00;151648.25;5024508;28;20513;-91
2024/01/27 05:59:13;;;;;;;3.33;2.90;;;;;;;1.07;100.00;151644.41;5035445;28;20523;-91
2024/01/27 06:01:40;;;;;;;3.57;2.53;;;;;;;1.03;100.00;151634.09;5015473;28;20483;-92
2024/01/27 06:04:10;;;;;;;3.40;2.43;;;;;;;0.99;100.00;151622.56;5051675;28;20471;-92
2024/01/27 06:06:40;;;;;;;5.37;3.40;;;;;;;0.97;100.00;151618.72;5033404;28;20451;-91
2024/01/27 06:09:10;;;;;;;5.10;2.77;;;;;;;0.97;100.00;151618.72;5031758;28;20464;-92
2024/01/27 06:11:37;;;;;;;2.80;2.43;;;;;;;0.95;100.00;151613.59;5027326;28;20466;-92
2024/01/27 06:14:04;;;;;;;4.50;2.47;;;;;;;0.91;100.00;151603.31;5039568;28;20504;-90
2024/01/27 06:16:31;;;;;;;6.13;2.87;;;;;;;0.89;100.00;151598.19;5028912;28;20481;-92
2024/01/27 06:18:58;;;;;;;6.80;3.00;;;;;;;0.90;100.00;151600.72;5030388;28;20512;-92
2024/01/27 06:21:24;;;;;;;5.97;3.40;;;;;;;0.93;100.00;151607.13;5053092;28;20826;-92
2024/01/27 06:23:53;;;;;;;3.27;2.87;;;;;;;0.95;100.00;151613.59;5037366;28;20800;-91
2024/01/27 06:26:21;;;;;;;5.63;3.37;;;;;;;0.92;100.00;151605.91;5059088;28;20447;-91
2024/01/27 06:28:48;;;;;;;4.80;3.27;;;;;;;0.85;100.00;151587.88;5046080;28;21064;-90
2024/01/27 06:31:17;;;;;;;5.10;3.43;;;;;;;0.84;100.00;151584.06;5047624;28;20855;-92
2024/01/27 06:33:44;;;;;;;4.27;3.00;;;;;;;0.75;100.00;151562.22;5051946;28;20565;-92
2024/01/27 06:36:11;;;;;;;5.10;2.33;;;;;;;0.75;100.00;151560.91;5036995;28;20553;-92
2024/01/27 06:38:38;;;;;;;5.90;3.57;;;;;;;0.68;100.00;151544.25;5042519;28;20464;-92
2024/01/27 06:41:07;;;;;;;4.17;3.30;;;;;;;0.66;100.00;151537.84;5032771;28;20460;-92
2024/01/27 06:43:33;;;;;;;8.07;3.00;;;;;;;0.64;100.00;151533.94;5026781;28;20467;-92
2024/01/27 06:46:00;;;;;;;3.80;2.33;;;;;;;0.64;100.00;151532.72;5026491;28;20460;-92
2024/01/27 06:48:27;;;;;;;3.60;2.50;;;;;;;0.65;100.00;151536.53;5010443;28;20914;-92
2024/01/27 06:50:53;;;;;;;4.27;2.57;;;;;;;0.64;100.00;151533.94;5017432;28;20473;-92
2024/01/27 06:53:20;;;;;;;5.70;2.63;;;;;;;0.65;100.00;151536.53;5017432;28;20448;-92
2024/01/27 06:55:47;;;;;;;5.63;2.57;;;;;;;0.59;100.00;151522.41;5018867;28;20554;-92
2024/01/27 06:58:15;;;;;;;3.67;2.73;;;;;;;0.60;100.00;151525.00;5034704;28;20427;-93
2024/01/27 07:00:42;;;;;;;3.30;2.63;;;;;;;0.63;100.00;151531.41;5020462;28;20474;-92
2024/01/27 07:03:09;;;;;;;4.60;3.27;;;;;;;0.62;100.00;151528.81;5020154;28;20490;-92
2024/01/27 07:05:38;;;;;;;4.50;3.10;;;;;;;0.62;100.00;151528.81;5021219;28;20961;-92
2024/01/27 07:08:07;;;;;;;3.97;2.80;;;;;;;0.68;100.00;151544.25;5018209;28;20451;-92
2024/01/27 07:10:33;;;;;;;4.50;3.23;;;;;;;0.69;100.00;151546.78;5035521;28;20487;-92
2024/01/27 07:13:00;;;;;;;8.13;3.90;;;;;;;0.75;100.00;151562.22;5051117;28;20496;-92
2024/01/27 07:15:28;;;;;;;7.67;5.40;;;;;;;0.83;100.00;151582.75;5051043;28;20449;-92
2024/01/27 07:17:55;;;;;;;7.33;6.33;;;;;;;0.90;100.00;151600.72;5034444;28;20501;-93
2024/01/27 07:20:23;;;;;;;7.80;6.50;;;;;;;0.96;100.00;151616.16;5034596;28;20462;-92
2024/01/27 07:22:49;;;;;;;7.30;5.17;;;;;;;1.03;100.00;151634.09;5034707;28;20917;-92
2024/01/27 07:25:16;;;;;;;6.63;4.80;;;;;;;1.10;100.00;151652.13;5034954;28;21020;-92
2024/01/27 07:27:43;;;;;;;5.53;5.00;;;;;;;1.17;100.00;151670.09;5034414;28;20459;-92
2024/01/27 07:30:11;;;;;;;7.27;4.70;;;;;;;1.29;100.00;151698.38;5034643;28;20455;-92
2024/01/27 07:32:40;;;;;;;6.67;4.83;;;;;;;1.49;100.00;151749.72;5035027;28;20459;-93
2024/01/27 07:35:07;;;;;;;6.00;4.40;;;;;;;1.87;100.00;151847.41;5035351;28;20496;-93
2024/01/27 07:37:34;;;;;;;4.90;4.40;;;;;;;2.61;100.00;152035.13;5051732;28;20450;-92
2024/01/27 07:40:02;;;;;;;7.27;4.50;;;;;;;3.38;100.00;152232.00;5054778;28;20503;-91
2024/01/27 07:42:28;;;;;;;6.03;4.50;;;;;;;3.98;100.00;152385.16;5056944;28;20447;-93
2024/01/27 07:44:55;;;;;;;8.10;5.23;;;;;;;4.08;100.00;152410.91;5034678;28;20443;-94
2024/01/27 07:47:22;;;;;;;4.90;3.60;;;;;;;4.28;99.26;152462.47;5050890;28;20446;-93
2024/01/27 07:49:50;;;;;;;7.53;3.93;;;;;;;4.81;97.39;152599.03;5036067;28;20443;-94
2024/01/27 07:52:18;;;;;;;4.30;3.00;;;;;;;5.66;93.29;152815.59;5047141;28;20482;-94
2024/01/27 07:54:45;;;;;;;5.10;3.23;;;;;;;6.13;87.60;152936.88;5030770;28;20542;-94
2024/01/27 07:57:12;;;;;;;5.33;3.00;;;;;;;5.93;85.19;152885.25;5014675;28;20477;-94
2024/01/27 07:59:39;;;;;;;3.90;2.70;;;;;;;5.42;85.95;152753.69;5014339;28;20432;-94
2024/01/27 08:02:06;;;;;;;4.57;2.30;;;;;;;4.77;87.78;152588.69;5030883;28;20436;-94
2024/01/27 08:04:34;;;;;;;5.90;2.60;;;;;;;4.42;90.76;152497.25;5014722;28;20529;-94
2024/01/27 08:07:06;;;;;;;5.77;3.10;;;;;;;4.18;93.40;152436.72;5014675;28;20863;-95
2024/01/27 08:09:32;;;;;;;5.07;3.10;;;;;;;4.00;95.01;152391.59;5030814;28;20475;-96
2024/01/27 08:11:59;;;;;;;5.03;3.40;;;;;;;3.99;96.24;152387.75;5014356;28;20553;-95
2024/01/27 08:14:26;;;;;;;6.60;4.07;;;;;;;3.99;97.83;152387.75;5047195;28;20447;-95
2024/01/27 08:16:53;;;;;;;6.47;4.13;;;;;;;3.89;97.78;152363.25;5014607;28;20926;-94
2024/01/27 08:19:20;;;;;;;5.20;3.83;;;;;;;3.66;96.94;152305.34;5031186;28;20542;-94
2024/01/27 08:21:48;;;;;;;6.73;3.97;;;;;;;3.57;97.71;152280.91;5013797;28;20452;-94
2024/01/27 08:24:16;;;;;;;4.93;4.33;;;;;;;3.62;98.25;152293.78;5047224;28;20455;-95
2024/01/27 08:26:43;;;;;;;5.73;5.13;;;;;;;3.59;98.71;152287.34;5047058;28;20459;-94
2024/01/27 08:29:12;;;;;;;10.43;6.03;;;;;;;3.62;99.61;152293.78;5013997;28;20538;-94
2024/01/27 08:31:39;;;;;;;6.83;4.73;;;;;;;3.58;99.77;152284.75;5030753;28;20475;-95
2024/01/27 08:34:05;;;;;;;5.00;4.43;;;;;;;3.59;100.00;152286.03;5025577;28;20441;-94
2024/01/27 08:36:37;;;;;;;39.43;23.83;;;;;;;3.64;100.00;152300.22;5004056;28;21005;-93
2024/01/27 08:39:04;;;;;;;42.13;28.40;;;;;;;3.63;100.00;152296.31;5029251;28;20466;-93
2024/01/27 08:41:32;;;;;;;28.30;19.57;;;;;;;3.62;100.00;152293.78;5015778;28;20486;-92
2024/01/27 08:43:59;;;;;;;17.90;13.17;;;;;;;3.57;100.00;152282.16;5038692;28;20468;-92
2024/01/27 08:46:25;;;;;;;16.70;10.87;;;;;;;3.54;100.00;152274.47;5036040;28;20450;-92
2024/01/27 08:48:52;;;;;;;9.30;7.30;;;;;;;3.51;100.00;152265.44;5023352;28;20819;-92
2024/01/27 08:51:19;;;;;;;9.83;5.70;;;;;;;3.48;100.00;152257.72;5021266;28;20563;-91
2024/01/27 08:53:48;;;;;;;6.13;4.30;;;;;;;3.48;100.00;152259.00;5014173;28;20471;-90
2024/01/27 08:56:15;;;;;;;5.90;5.00;;;;;;;3.48;100.00;152259.00;5036887;28;20454;-91
2024/01/27 08:58:44;;;;;;;6.63;5.30;;;;;;;3.52;100.00;152268.03;5038448;28;20513;-90
2024/01/27 09:01:12;;;;;;;7.53;4.50;;;;;;;3.58;100.00;152284.75;5038758;28;20445;-89
2024/01/27 09:03:40;;;;;;;6.57;4.70;;;;;;;3.66;100.00;152305.34;5026958;28;20479;-89
2024/01/27 09:06:07;;;;;;;6.00;4.60;;;;;;;3.78;100.00;152334.97;5042731;28;20691;-90
2024/01/27 09:08:34;;;;;;;6.23;4.97;;;;;;;3.88;100.00;152359.44;5048400;28;20456;-90
2024/01/27 09:11:00;;;;;;;5.00;4.50;;;;;;;3.93;100.00;152372.28;5054960;28;20508;-90
2024/01/27 09:13:27;;;;;;;6.50;4.93;;;;;;;3.99;100.00;152387.75;5044038;28;20455;-91
2024/01/27 09:15:54;;;;;;;4.90;4.10;;;;;;;3.98;100.00;152385.16;5036990;28;20444;-91
2024/01/27 09:18:22;;;;;;;9.63;5.50;;;;;;;3.99;100.00;152387.75;5045395;28;20459;-91
2024/01/27 09:20:48;;;;;;;8.10;5.90;;;;;;;4.02;100.00;152395.50;5039438;28;20455;-91
2024/01/27 09:23:15;;;;;;;8.50;5.77;;;;;;;4.08;100.00;152412.22;5032480;28;20485;-91
2024/01/27 09:25:42;;;;;;;6.90;5.37;;;;;;;4.10;100.00;152416.09;5033184;28;20534;-90
2024/01/27 09:28:08;;;;;;;7.57;5.10;;;;;;;4.13;100.00;152425.09;5018218;28;20452;-91
2024/01/27 09:30:35;;;;;;;9.00;5.40;;;;;;;4.11;100.00;152418.66;5035492;28;20763;-91
2024/01/27 09:33:03;;;;;;;9.53;5.77;;;;;;;4.06;100.00;152405.78;5033572;28;20454;-91
2024/01/27 09:35:29;;;;;;;5.73;5.13;;;;;;;4.04;100.00;152400.63;5039079;28;20524;-92
2024/01/27 09:37:56;;;;;;;8.23;4.77;;;;;;;4.07;100.00;152409.66;5036361;28;20460;-92
2024/01/27 09:40:22;;;;;;;7.20;4.80;;;;;;;4.09;100.00;152413.50;5035568;28;20447;-92
2024/01/27 09:42:51;;;;;;;8.17;5.77;;;;;;;4.10;100.00;152416.09;5035017;28;20886;-92
2024/01/27 09:45:18;;;;;;;6.00;4.80;;;;;;;4.10;100.00;152417.34;5034756;28;20475;-92
2024/01/27 09:47:46;;;;;;;5.80;5.13;;;;;;;4.10;100.00;152417.34;5019815;28;20492;-92
2024/01/27 09:50:15;;;;;;;9.07;5.60;;;;;;;4.11;100.00;152418.66;5037746;28;20511;-92
2024/01/27 09:52:41;;;;;;;5.83;5.10;;;;;;;4.11;100.00;152419.94;5040827;28;20474;-92
2024/01/27 09:55:08;;;;;;;9.43;5.90;;;;;;;4.12;100.00;152421.25;5029036;28;20477;-93
2024/01/27 09:57:37;;;;;;;7.67;5.83;;;;;;;4.16;100.00;152431.53;5038982;28;20451;-93
2024/01/27 10:00:04;;;;;;;8.23;5.57;;;;;;;4.18;100.00;152437.97;5044120;28;20455;-93
2024/01/27 10:02:32;;;;;;;8.57;5.87;;;;;;;4.20;100.00;152441.84;5041004;28;20463;-93
2024/01/27 10:04:58;;;;;;;9.57;5.60;;;;;;;4.22;100.00;152448.28;5030379;28;20475;-93
2024/01/27 10:07:26;;;;;;;7.40;5.10;;;;;;;4.26;100.00;152457.31;5038821;28;20537;-93
2024/01/27 10:09:53;;;;;;;4.83;4.33;;;;;;;4.28;100.00;152462.47;5033191;28;20491;-93
2024/01/27 10:12:22;;;;;;;5.43;4.30;;;;;;;4.29;100.00;152466.31;5047838;28;20484;-93
2024/01/27 10:14:52;;;;;;;5.93;4.30;;;;;;;4.30;100.00;152468.91;5013655;28;20440;-93
2024/01/27 10:17:22;;;;;;;5.10;4.17;;;;;;;4.31;100.00;152471.44;5060457;28;20547;-92
2024/01/27 10:20:00;;;;;;;6.10;4.17;;;;;;;4.29;100.00;152466.31;5024634;28;20436;-94
2024/01/27 10:22:38;;;;;;;6.77;3.30;;;;;;;4.35;100.00;152480.47;5032267;28;20455;-94
2024/01/27 10:25:07;;;;;;;5.77;4.30;;;;;;;4.35;100.00;152479.19;5032274;28;20483;-95
2024/01/27 10:27:34;;;;;;;7.30;4.80;;;;;;;4.37;100.00;152484.38;5048852;28;20436;-94
2024/01/27 10:30:00;;;;;;;8.30;4.80;;;;;;;4.49;98.20;152516.56;5048966;28;20448;-94
2024/01/27 10:32:29;;;;;;;7.43;4.90;;;;;;;4.57;95.09;152535.88;5048712;28;20521;-94
2024/01/27 10:35:03;;;;;;;6.73;5.37;;;;;;;4.63;96.49;152552.59;5033721;28;20440;-93
2024/01/27 10:37:32;;;;;;;8.67;5.67;;;;;;;4.70;97.48;152570.66;5048812;28;20440;-93
2024/01/27 10:40:03;;;;;;;7.50;6.43;;;;;;;4.73;96.22;152577.13;5048185;28;20934;-93
2024/01/27 10:42:30;;;;;;;7.40;5.77;;;;;;;4.72;95.88;152574.50;5032336;28;20428;-93
2024/01/27 10:44:58;;;;;;;11.00;6.03;;;;;;;4.78;97.23;152591.28;5033709;28;20437;-92
2024/01/27 10:47:26;;;;;;;8.90;5.90;;;;;;;4.82;96.99;152601.56;5067902;28;20516;-93
2024/01/27 10:49:53;;;;;;;8.00;5.83;;;;;;;4.74;95.20;152579.66;5051784;28;20442;-93
2024/01/27 10:52:22;;;;;;;8.80;5.50;;;;;;;4.71;96.05;152573.22;5034781;28;20977;-92
2024/01/27 10:54:50;;;;;;;8.77;6.50;;;;;;;4.64;93.79;152555.19;5028652;28;20547;-93
2024/01/27 10:57:22;;;;;;;8.80;4.87;;;;;;;4.73;94.88;152577.13;5069709;22;20440;-93
2024/01/27 10:59:51;;;;;;;8.00;4.63;;;;;;;4.55;93.08;152532.03;5071185;28;20503;-93
2024/01/27 11:02:21;;;;;;;10.47;5.03;;;;;;;4.51;95.92;152520.41;5053992;28;20439;-92
2024/01/27 11:04:52;;;;;;;11.50;6.33;;;;;;;4.57;95.78;152537.19;5084218;28;20441;-93
2024/01/27 11:07:22;;;;;;;8.40;6.20;;;;;;;4.67;97.34;152561.63;5090837;28;20923;-92
2024/01/27 11:09:52;;;;;;;5.67;4.67;;;;;;;4.69;94.94;152566.78;5090469;28;20452;-91
2024/01/27 11:12:19;;;;;;;8.40;5.83;;;;;;;4.60;94.01;152544.91;5086202;28;20468;-92
2024/01/27 11:14:47;;;;;;;10.70;5.10;;;;;;;4.65;95.04;152557.78;5089664;28;20445;-92
2024/01/27 11:17:16;;;;;;;8.93;4.50;;;;;;;4.73;94.68;152577.13;5080236;28;20450;-91
2024/01/27 11:19:43;;;;;;;10.47;5.43;;;;;;;4.76;93.90;152586.16;5085322;28;20453;-91
2024/01/27 11:22:24;;;;;;;6.30;4.70;;;;;;;4.72;92.85;152574.50;5085098;28;20449;-90
2024/01/27 11:24:52;;;;;;;5.83;4.70;;;;;;;4.82;94.05;152600.28;5080117;28;20449;-90
2024/01/27 11:27:19;;;;;;;7.33;6.40;;;;;;;4.84;94.85;152606.72;5081913;28;20483;-92